Bar Nunn, Wyoming
Current Conditions -  °F | °C
As of 10:53 PM on Tuesday 21 Oct 2014 (Local Time) from KCPR Reporting Station
Clear Clear  
Wind Chill: 52°   Ceiling: Unl
Heat Index: 52°   Visibility: 10mi
Dew Point: 38°   Wind: 12mph
Humidity: 59%   Direction: 230°SW
Pressure: 29.95"   Gusts: NA
Location:  42.84°N, 106.275°W
Report Text: KCPR 220453Z 23010KT 10SM CLR 11/03 A2995 RMK AO2 SLP096 T01110033
Loading
Personal Weather Stations






























Interactive Weather Map
Tropical Storm Tracking
New forecast layout! Learn more

10-Day Weather Forecast

Advertisements
Track Severe Weather on mobile